Time;durP1;ratioP1;P1;durP2;ratioP2;P2;SDS_P1;SDS_P2;PMS_P1;PMS_P2;Temp;Humidity;BMP_temperature;BMP_pressure;BME280_temperature;BME280_humidity;BME280_pressure;Samples;Min_cycle;Max_cycle;Signal;HPM_P1;HPM_P2
2023/10/15 00:00:22;;;;;;;22.00;9.80;;;;;;;13.20;100.00;97047.78;5048670;28;20025;-72
2023/10/15 00:02:49;;;;;;;15.75;9.00;;;;;;;13.16;100.00;97054.41;5049907;28;20033;-72
2023/10/15 00:05:17;;;;;;;21.30;9.15;;;;;;;13.13;100.00;97046.59;5050450;28;20051;-72
2023/10/15 00:07:44;;;;;;;16.85;9.20;;;;;;;13.10;100.00;97041.47;5081750;28;20179;-71
2023/10/15 00:10:14;;;;;;;17.38;9.10;;;;;;;13.12;100.00;97052.94;5050150;28;20112;-72
2023/10/15 00:12:42;;;;;;;14.98;9.38;;;;;;;13.05;100.00;97039.09;5082183;28;20500;-72
2023/10/15 00:15:18;;;;;;;18.90;9.80;;;;;;;13.11;100.00;97045.84;5082528;28;20115;-71
2023/10/15 00:17:47;;;;;;;20.02;9.43;;;;;;;13.08;100.00;97021.91;5066330;28;20507;-71
2023/10/15 00:20:16;;;;;;;15.75;8.95;;;;;;;13.10;100.00;97028.03;5052542;28;20507;-72
2023/10/15 00:22:45;;;;;;;18.88;9.05;;;;;;;13.00;100.00;97025.19;5068801;28;20386;-72
2023/10/15 00:25:14;;;;;;;15.05;9.73;;;;;;;12.75;100.00;97029.94;5052620;28;20025;-72
2023/10/15 00:27:52;;;;;;;18.00;9.30;;;;;;;12.80;100.00;97033.09;5052331;28;20124;-72
2023/10/15 00:30:19;;;;;;;16.13;9.38;;;;;;;12.67;100.00;97027.03;5052380;28;20239;-72
2023/10/15 00:32:45;;;;;;;22.70;9.90;;;;;;;12.59;100.00;97027.63;5035656;28;20033;-72
2023/10/15 00:35:13;;;;;;;26.40;10.13;;;;;;;12.65;100.00;97035.19;5052475;28;20036;-72
2023/10/15 00:37:46;;;;;;;14.85;9.27;;;;;;;12.63;100.00;97021.03;5052431;28;20035;-68
2023/10/15 00:40:16;;;;;;;19.08;9.07;;;;;;;12.60;100.00;97013.22;5053525;28;20033;-69
2023/10/15 00:42:44;;;;;;;18.08;8.50;;;;;;;12.69;100.00;97031.28;5036557;28;20029;-69
2023/10/15 00:45:10;;;;;;;16.27;9.13;;;;;;;12.78;100.00;97016.28;5052162;28;20365;-70
2023/10/15 00:47:37;;;;;;;23.73;8.52;;;;;;;12.93;100.00;97018.59;5035498;28;20033;-71
2023/10/15 00:50:08;;;;;;;13.43;8.60;;;;;;;12.95;100.00;97018.50;5053314;28;20104;-72
2023/10/15 00:52:38;;;;;;;19.05;8.95;;;;;;;12.91;100.00;97015.19;5052117;28;20036;-72
2023/10/15 00:55:05;;;;;;;20.70;9.50;;;;;;;12.88;100.00;97018.13;5052058;28;20428;-72
2023/10/15 00:57:41;;;;;;;19.05;9.07;;;;;;;12.91;100.00;97014.34;5035338;28;20040;-72
2023/10/15 01:00:36;;;;;;;20.63;8.70;;;;;;;12.91;100.00;97008.97;5036876;28;20039;-72
2023/10/15 01:03:01;;;;;;;21.92;8.93;;;;;;;12.91;100.00;97009.84;5069061;28;20109;-72
2023/10/15 01:05:27;;;;;;;13.85;8.13;;;;;;;12.87;100.00;97008.34;5071871;28;20035;-72
2023/10/15 01:07:54;;;;;;;19.27;7.03;;;;;;;13.20;100.00;97006.66;5072942;28;20500;-73
2023/10/15 01:13:21;;;;;;;17.90;6.97;;;;;;;13.30;100.00;97000.41;5067647;28;20049;-72
2023/10/15 01:15:58;;;;;;;15.25;8.02;;;;;;;13.23;100.00;96993.81;5071730;28;20152;-72
2023/10/15 01:18:24;;;;;;;14.98;7.25;;;;;;;13.29;100.00;96993.31;5071682;28;20044;-71
2023/10/15 01:20:49;;;;;;;20.63;7.07;;;;;;;13.29;100.00;96993.31;5073061;28;20654;-72
2023/10/15 01:23:32;;;;;;;9.85;7.15;;;;;;;13.21;100.00;96995.78;5071639;28;20126;-73
2023/10/15 01:26:12;;;;;;;11.82;7.03;;;;;;;13.09;100.00;96995.94;5057075;28;20025;-72
2023/10/15 01:28:38;;;;;;;14.52;7.75;;;;;;;13.12;100.00;96991.16;5070441;28;20029;-72
2023/10/15 01:31:05;;;;;;;15.95;7.50;;;;;;;13.14;100.00;96991.88;5072520;28;20031;-72
2023/10/15 01:33:50;;;;;;;15.77;7.80;;;;;;;13.06;100.00;96997.00;5071284;28;20047;-72
2023/10/15 01:36:27;;;;;;;10.90;6.18;;;;;;;13.11;100.00;96986.75;5073440;28;20384;-73
2023/10/15 01:38:57;;;;;;;17.30;6.95;;;;;;;13.04;100.00;96989.06;5071240;28;20024;-72
2023/10/15 01:41:25;;;;;;;13.35;7.32;;;;;;;13.08;100.00;96978.97;5054922;28;20064;-73
2023/10/15 01:43:53;;;;;;;13.68;7.38;;;;;;;13.08;100.00;96987.00;5071117;28;20032;-72
2023/10/15 01:49:18;;;;;;;11.07;7.07;;;;;;;13.24;100.00;96978.56;5071549;28;20534;-72
2023/10/15 01:51:45;;;;;;;17.52;7.47;;;;;;;13.16;100.00;96992.63;5071380;28;20028;-72
2023/10/15 01:54:12;;;;;;;9.60;6.53;;;;;;;13.14;100.00;96997.25;5072076;28;20466;-72
2023/10/15 01:56:38;;;;;;;13.35;7.10;;;;;;;13.09;100.00;96991.41;5087718;28;20396;-72
2023/10/15 01:59:10;;;;;;;15.80;8.15;;;;;;;12.99;100.00;96995.78;5070664;28;20028;-72
2023/10/15 02:01:41;;;;;;;17.65;8.57;;;;;;;12.78;100.00;96984.06;5070880;28;20036;-72
2023/10/15 02:04:30;;;;;;;16.80;8.88;;;;;;;12.54;100.00;96994.94;5071788;28;20028;-72
2023/10/15 02:06:56;;;;;;;21.92;7.97;;;;;;;12.48;100.00;97004.31;5071659;28;20523;-72
2023/10/15 02:09:22;;;;;;;14.73;8.13;;;;;;;12.41;100.00;96984.31;5070538;28;20025;-72
2023/10/15 02:11:54;;;;;;;11.73;7.70;;;;;;;12.36;100.00;96996.38;5071811;28;20039;-72
2023/10/15 02:14:30;;;;;;;17.77;8.23;;;;;;;12.40;100.00;96989.78;5070427;28;20032;-72
2023/10/15 02:16:59;;;;;;;15.38;7.80;;;;;;;12.48;100.00;96990.91;5065438;28;20025;-72
2023/10/15 02:22:05;;;;;;;15.82;7.07;;;;;;;12.74;100.00;96977.25;5070539;28;20472;-72
2023/10/15 02:24:33;;;;;;;15.18;7.13;;;;;;;12.79;100.00;96973.25;5070160;28;20110;-72
2023/10/15 02:26:59;;;;;;;20.90;7.80;;;;;;;12.88;100.00;96975.19;5070496;28;20411;-72
2023/10/15 02:29:49;;;;;;;17.42;7.63;;;;;;;12.92;100.00;96973.13;5070088;28;20028;-73
2023/10/15 02:32:34;;;;;;;18.17;9.25;;;;;;;12.56;100.00;96978.69;5070511;28;20467;-72
2023/10/15 02:35:05;;;;;;;16.38;9.02;;;;;;;12.48;100.00;96976.63;5071147;28;20037;-72
2023/10/15 02:37:31;;;;;;;16.35;8.90;;;;;;;12.30;100.00;96987.00;5070559;28;20016;-71
2023/10/15 02:39:57;;;;;;;17.45;8.88;;;;;;;12.38;100.00;96984.56;5069780;28;20030;-72
2023/10/15 02:42:34;;;;;;;26.77;9.10;;;;;;;12.35;100.00;96982.09;5070014;28;20024;-72
2023/10/15 02:45:01;;;;;;;22.27;9.10;;;;;;;12.27;100.00;96981.88;5071281;28;20077;-72
2023/10/15 02:47:31;;;;;;;20.17;9.27;;;;;;;12.35;100.00;96971.38;5070039;28;20534;-73
2023/10/15 02:52:35;;;;;;;17.35;8.63;;;;;;;12.41;100.00;96984.31;5069880;28;20028;-72
2023/10/15 02:55:06;;;;;;;23.55;8.48;;;;;;;12.45;100.00;96976.88;5069856;28;20054;-71
2023/10/15 02:57:38;;;;;;;15.83;7.70;;;;;;;12.49;100.00;96975.66;5069972;28;20060;-71
2023/10/15 03:00:13;;;;;;;20.38;8.05;;;;;;;12.56;100.00;96981.38;5071070;28;20016;-72
2023/10/15 03:02:43;;;;;;;17.63;7.75;;;;;;;12.57;100.00;96977.75;5070770;28;20020;-72
2023/10/15 03:05:15;;;;;;;23.77;7.68;;;;;;;12.56;100.00;96981.38;5069728;28;20066;-72
2023/10/15 03:07:44;;;;;;;17.77;6.72;;;;;;;12.56;100.00;96973.34;5069320;28;20029;-72
2023/10/15 03:10:10;;;;;;;15.98;7.90;;;;;;;12.71;100.00;96972.97;5069757;28;20383;-72
2023/10/15 03:12:43;;;;;;;13.68;7.43;;;;;;;12.79;100.00;96980.44;5070630;28;20039;-71
2023/10/15 03:15:10;;;;;;;;;;;;;;;12.78;100.00;96986.75;5071114;28;20029;-71
2023/10/15 03:17:41;;;;;;;15.55;7.35;;;;;;;12.75;100.00;96977.13;5052400;28;19927;-71
2023/10/15 03:22:46;;;;;;;16.38;7.20;;;;;;;12.93;100.00;96975.66;5070538;28;20037;-71
2023/10/15 03:25:16;;;;;;;13.50;7.00;;;;;;;12.93;100.00;96975.66;5069363;28;20029;-73
2023/10/15 03:27:47;;;;;;;23.02;7.47;;;;;;;12.93;100.00;96974.78;5069181;28;20368;-72
2023/10/15 03:30:13;;;;;;;15.80;6.78;;;;;;;12.99;100.00;96980.53;5069270;28;20104;-72
2023/10/15 03:32:45;;;;;;;11.70;6.72;;;;;;;13.01;100.00;96983.94;5069090;28;20028;-72
2023/10/15 03:35:18;;;;;;;17.45;6.95;;;;;;;12.99;100.00;96971.63;5052806;28;20403;-72
2023/10/15 03:37:47;;;;;;;12.60;6.28;;;;;;;12.98;100.00;96968.06;5069945;28;20098;-72
2023/10/15 03:43:05;;;;;;;19.00;8.35;;;;;;;12.92;100.00;96973.13;5068969;28;20032;-71
2023/10/15 03:45:47;;;;;;;22.00;7.25;;;;;;;12.87;100.00;96964.56;5084823;28;20517;-71
2023/10/15 03:48:14;;;;;;;12.45;6.30;;;;;;;12.90;100.00;96972.34;5070478;28;20113;-72
2023/10/15 03:50:53;;;;;;;11.85;6.72;;;;;;;12.88;100.00;96971.63;5068965;28;20189;-72
2023/10/15 03:53:21;;;;;;;16.63;6.60;;;;;;;12.88;100.00;96963.59;5083878;28;20032;-72
2023/10/15 03:55:50;;;;;;;18.00;6.88;;;;;;;12.81;100.00;96965.06;5068813;28;20029;-72
2023/10/15 03:58:18;;;;;;;21.63;6.88;;;;;;;12.90;100.00;96964.31;5068944;28;20149;-73
2023/10/15 04:00:47;;;;;;;12.68;7.03;;;;;;;12.85;100.00;96962.00;5085514;28;20036;-72
2023/10/15 04:03:22;;;;;;;24.02;7.15;;;;;;;12.82;100.00;96962.25;5068536;28;20032;-72
2023/10/15 04:06:00;;;;;;;13.82;7.63;;;;;;;12.88;100.00;96956.41;5069033;28;20040;-72
2023/10/15 04:08:27;;;;;;;15.10;7.57;;;;;;;12.76;100.00;96961.88;5068904;28;20028;-72
2023/10/15 04:10:57;;;;;;;12.77;7.45;;;;;;;12.80;100.00;96952.59;5068917;28;20040;-72
2023/10/15 04:13:22;;;;;;;14.85;8.65;;;;;;;12.72;100.00;96971.16;5068652;28;20033;-72
2023/10/15 04:15:49;;;;;;;20.40;8.80;;;;;;;12.52;100.00;96957.47;5068496;28;20037;-73
2023/10/15 04:18:15;;;;;;;20.80;9.35;;;;;;;12.61;100.00;96963.13;5068237;28;20075;-72
2023/10/15 04:20:43;;;;;;;13.57;8.68;;;;;;;12.56;100.00;96962.59;5068532;28;20472;-72
2023/10/15 04:23:13;;;;;;;17.85;9.10;;;;;;;12.59;100.00;96955.16;5069804;28;20112;-72
2023/10/15 04:25:39;;;;;;;21.13;9.85;;;;;;;12.52;100.00;96960.16;5068832;28;20036;-72
2023/10/15 04:28:14;;;;;;;22.05;8.88;;;;;;;12.50;100.00;96962.13;5068240;28;20024;-72
2023/10/15 04:30:40;;;;;;;16.05;8.45;;;;;;;12.39;100.00;96962.13;5069445;28;20020;-71
2023/10/15 04:33:13;;;;;;;20.38;8.45;;;;;;;12.38;100.00;96959.56;5068215;28;20067;-71
2023/10/15 04:35:42;;;;;;;24.42;9.43;;;;;;;12.34;100.00;96961.63;5069546;28;20395;-72
2023/10/15 04:38:07;;;;;;;17.05;8.23;;;;;;;12.40;100.00;96958.44;5068272;28;20455;-72
2023/10/15 04:40:59;;;;;;;25.10;7.45;;;;;;;12.38;100.00;96956.88;5068249;28;20047;-73
2023/10/15 04:43:25;;;;;;;20.52;7.75;;;;;;;12.37;100.00;96955.16;5068835;28;20060;-72
2023/10/15 04:45:55;;;;;;;14.52;8.45;;;;;;;12.28;100.00;96967.47;5085137;28;20020;-71
2023/10/15 04:48:29;;;;;;;16.83;7.35;;;;;;;12.32;100.00;96965.41;5067952;28;20406;-72
2023/10/15 04:51:01;;;;;;;23.98;7.93;;;;;;;12.26;100.00;96966.75;5068564;28;20151;-72
2023/10/15 04:53:30;;;;;;;26.88;8.77;;;;;;;12.36;100.00;96970.41;5069342;28;20020;-72
2023/10/15 04:55:56;;;;;;;19.83;9.25;;;;;;;12.36;100.00;96969.56;5068649;28;20498;-72
2023/10/15 04:58:27;;;;;;;24.08;8.80;;;;;;;12.40;100.00;96966.50;5068086;28;20043;-72
2023/10/15 05:00:54;;;;;;;23.70;8.57;;;;;;;12.45;100.00;96972.38;5069636;28;20017;-72
2023/10/15 05:03:21;;;;;;;19.60;8.50;;;;;;;12.36;100.00;96967.72;5069849;28;20067;-72
2023/10/15 05:05:47;;;;;;;18.23;8.23;;;;;;;12.50;100.00;96969.31;5071575;28;20590;-72
2023/10/15 05:08:13;;;;;;;19.42;8.05;;;;;;;12.51;100.00;96984.44;5072645;28;20032;-73
2023/10/15 05:10:45;;;;;;;22.13;9.85;;;;;;;12.43;100.00;96984.19;5071571;28;20029;-73
2023/10/15 05:13:11;;;;;;;19.25;9.10;;;;;;;12.52;100.00;96987.00;5071631;28;20032;-73
2023/10/15 05:15:38;;;;;;;15.80;8.70;;;;;;;12.65;100.00;96978.84;5071326;28;20113;-71
2023/10/15 05:18:04;;;;;;;21.30;8.40;;;;;;;12.78;100.00;96973.34;5072689;28;20074;-73
2023/10/15 05:20:31;;;;;;;21.00;10.50;;;;;;;12.96;100.00;96986.16;5070855;28;20507;-72
2023/10/15 05:22:56;;;;;;;21.65;9.80;;;;;;;13.18;100.00;96979.94;5071477;28;20020;-71
2023/10/15 05:25:22;;;;;;;36.13;10.93;;;;;;;13.11;100.00;96994.81;5071113;28;20023;-72
2023/10/15 05:27:51;;;;;;;22.73;9.35;;;;;;;13.07;100.00;96988.81;5070766;28;20033;-73
2023/10/15 05:30:17;;;;;;;18.15;9.45;;;;;;;13.17;100.00;96983.59;5054636;28;20033;-73
2023/10/15 05:32:48;;;;;;;27.27;10.32;;;;;;;13.40;100.00;96979.88;5070813;28;20035;-71
2023/10/15 05:35:14;;;;;;;20.77;11.43;;;;;;;14.17;100.00;96975.16;5072467;28;20024;-72
2023/10/15 05:37:39;;;;;;;26.15;10.25;;;;;;;14.29;100.00;96978.63;5070849;28;20016;-72
2023/10/15 05:40:06;;;;;;;26.60;10.25;;;;;;;14.99;100.00;96976.03;5054305;28;20058;-72
2023/10/15 05:42:33;;;;;;;22.80;9.60;;;;;;;15.78;100.00;96976.97;5070831;28;20039;-71
2023/10/15 05:44:58;;;;;;;24.67;8.55;;;;;;;16.65;100.00;96955.16;5070949;28;20123;-72
2023/10/15 05:47:24;;;;;;;25.48;13.15;;;;;;;16.60;100.00;96967.41;5070781;28;20100;-72
2023/10/15 05:49:50;;;;;;;18.27;10.38;;;;;;;17.19;100.00;96964.34;5053687;28;20055;-72
2023/10/15 05:52:15;;;;;;;14.98;7.50;;;;;;;18.16;100.00;96959.97;5070620;28;20025;-72
2023/10/15 05:54:41;;;;;;;12.43;7.03;;;;;;;18.74;100.00;96946.72;5070525;28;20020;-73
2023/10/15 05:57:07;;;;;;;16.33;7.40;;;;;;;18.82;100.00;96950.34;5072154;28;20052;-73
2023/10/15 05:59:36;;;;;;;16.75;7.60;;;;;;;19.65;100.00;96947.84;5087408;28;20098;-72
2023/10/15 06:02:02;;;;;;;16.38;7.07;;;;;;;20.34;95.06;96942.84;5070658;28;20044;-72
2023/10/15 06:04:28;;;;;;;10.82;6.68;;;;;;;21.21;87.08;96943.88;5070183;28;20407;-72
2023/10/15 06:06:54;;;;;;;23.50;9.13;;;;;;;20.89;88.96;96945.66;5070120;28;20461;-72
2023/10/15 06:09:20;;;;;;;13.93;6.80;;;;;;;20.61;92.18;96952.50;5070286;28;20029;-72
2023/10/15 06:11:46;;;;;;;16.52;7.47;;;;;;;21.47;85.23;96937.13;5070127;28;20467;-73
2023/10/15 06:14:11;;;;;;;20.48;6.22;;;;;;;22.34;77.20;96938.66;5071082;28;20388;-74
2023/10/15 06:16:37;;;;;;;23.25;8.20;;;;;;;21.96;79.43;96932.31;5086673;28;20029;-74
2023/10/15 06:19:03;;;;;;;18.33;7.35;;;;;;;22.69;72.98;96934.44;5069733;28;20470;-74
2023/10/15 06:21:28;;;;;;;21.15;7.40;;;;;;;22.78;72.92;96927.88;5070031;28;20029;-74
2023/10/15 06:23:54;;;;;;;16.27;7.30;;;;;;;23.94;66.41;96925.25;5071210;28;20024;-73
2023/10/15 06:26:20;;;;;;;20.55;7.45;;;;;;;23.82;64.69;96918.59;5070194;28;20337;-75
2023/10/15 06:28:45;;;;;;;17.02;8.02;;;;;;;22.60;72.64;96930.06;5071287;28;20166;-73
2023/10/15 06:31:11;;;;;;;19.23;8.20;;;;;;;22.78;71.22;96919.69;5069972;28;20041;-72
2023/10/15 06:33:40;;;;;;;16.63;8.15;;;;;;;22.96;69.76;96931.09;5065584;28;20068;-72
2023/10/15 06:36:06;;;;;;;23.80;8.85;;;;;;;22.80;69.12;96923.06;5083618;28;20447;-72
2023/10/15 06:38:33;;;;;;;18.48;7.00;;;;;;;22.88;71.92;96930.34;5067234;28;20063;-71
2023/10/15 06:41:00;;;;;;;21.98;8.20;;;;;;;23.04;70.97;96922.81;5067182;28;20029;-72
2023/10/15 06:43:26;;;;;;;20.05;6.78;;;;;;;23.71;66.99;96914.50;5068443;28;20039;-72
2023/10/15 06:45:52;;;;;;;25.33;8.38;;;;;;;24.40;62.41;96912.06;5066831;28;20411;-71
2023/10/15 06:48:18;;;;;;;22.50;8.18;;;;;;;24.72;61.14;96903.31;5066825;28;20032;-73
2023/10/15 06:50:44;;;;;;;19.42;8.10;;;;;;;25.42;58.40;96897.69;5066904;28;20036;-72
2023/10/15 06:53:09;;;;;;;20.35;7.07;;;;;;;24.74;59.75;96903.94;5066734;28;20116;-73
2023/10/15 06:55:35;;;;;;;16.75;7.35;;;;;;;25.92;57.17;96892.84;5066679;28;20082;-73
2023/10/15 06:58:01;;;;;;;25.60;8.05;;;;;;;25.21;57.21;96898.63;5066779;28;20024;-72
2023/10/15 07:00:28;;;;;;;14.15;7.88;;;;;;;26.45;54.06;96888.31;5066559;28;20050;-72
2023/10/15 07:02:55;;;;;;;14.80;6.57;;;;;;;27.12;50.76;96875.19;5066511;28;20460;-73
2023/10/15 07:05:23;;;;;;;20.15;6.90;;;;;;;26.81;51.37;96881.38;5066686;28;20032;-72
2023/10/15 07:07:49;;;;;;;17.58;7.00;;;;;;;27.09;51.12;96886.59;5066396;28;20035;-72
2023/10/15 07:10:15;;;;;;;26.95;7.40;;;;;;;27.97;50.99;96891.38;5049807;28;20036;-72
2023/10/15 07:12:46;;;;;;;13.98;8.13;;;;;;;28.11;48.56;96877.56;5083283;28;20021;-72
2023/10/15 07:15:15;;;;;;;25.33;9.07;;;;;;;27.99;48.41;96872.72;5066353;28;20048;-72
2023/10/15 07:17:44;;;;;;;16.80;8.35;;;;;;;28.46;46.22;96867.78;5065435;28;20059;-72
2023/10/15 07:20:31;;;;;;;26.80;7.53;;;;;;;27.98;47.86;96870.22;5083554;28;20127;-72
2023/10/15 07:23:02;;;;;;;36.03;12.40;;;;;;;28.62;46.49;96866.38;5067497;28;20065;-71
2023/10/15 07:25:27;;;;;;;11.88;7.00;;;;;;;28.51;45.51;96866.06;5062923;28;20035;-71
2023/10/15 07:27:55;;;;;;;26.55;10.70;;;;;;;28.45;46.19;96866.97;5065761;28;20111;-71
2023/10/15 07:30:20;;;;;;;32.67;9.10;;;;;;;28.80;45.62;96860.97;5049597;28;20032;-71
2023/10/15 07:32:46;;;;;;;19.80;9.27;;;;;;;28.71;44.90;96856.81;5066125;28;20043;-71
2023/10/15 07:35:14;;;;;;;32.97;8.68;;;;;;;29.39;44.39;96869.50;5066151;28;20410;-72
2023/10/15 07:37:44;;;;;;;22.08;8.18;;;;;;;29.08;43.76;96854.97;5083399;28;20037;-71
2023/10/15 07:40:16;;;;;;;31.80;10.02;;;;;;;29.27;43.57;96848.44;5066176;28;20035;-72
2023/10/15 07:42:46;;;;;;;27.63;10.32;;;;;;;29.17;43.90;96848.06;5066486;28;20032;-72
2023/10/15 07:45:13;;;;;;;24.50;9.10;;;;;;;30.79;41.13;96831.41;5066169;28;20024;-72
2023/10/15 07:47:38;;;;;;;32.10;9.10;;;;;;;30.64;40.42;96829.09;5066208;28;20136;-72
2023/10/15 07:50:23;;;;;;;35.88;14.07;;;;;;;29.74;41.57;96831.09;5066227;28;20143;-71
2023/10/15 07:52:50;;;;;;;77.78;12.73;;;;;;;29.27;42.59;96841.00;5065916;28;20033;-72
2023/10/15 07:55:16;;;;;;;29.08;10.32;;;;;;;28.79;43.52;96837.25;5066341;28;20450;-71
2023/10/15 07:57:42;;;;;;;21.52;10.18;;;;;;;28.64;44.26;96831.25;5047625;28;20013;-72
2023/10/15 08:00:14;;;;;;;24.50;11.07;;;;;;;29.21;43.85;96838.28;5046249;28;20048;-72
2023/10/15 08:02:41;;;;;;;20.52;10.07;;;;;;;30.97;40.70;96823.03;5046249;28;20021;-72
2023/10/15 08:05:08;;;;;;;24.20;8.73;;;;;;;31.14;40.36;96822.06;5044200;28;20036;-72
2023/10/15 08:07:34;;;;;;;34.00;20.23;;;;;;;30.96;39.60;96819.44;5049405;28;20442;-72
2023/10/15 08:10:00;;;;;;;20.67;8.48;;;;;;;31.33;39.28;96816.38;5066031;28;20109;-72
2023/10/15 08:12:27;;;;;;;20.10;9.63;;;;;;;31.48;38.97;96820.31;5066049;28;20036;-72
2023/10/15 08:14:54;;;;;;;11.85;7.10;;;;;;;32.58;36.82;96814.44;5045321;28;20033;-72
2023/10/15 08:17:23;;;;;;;19.13;8.20;;;;;;;32.06;37.40;96809.09;5058106;28;20047;-72
2023/10/15 08:19:48;;;;;;;13.68;6.82;;;;;;;32.18;37.31;96814.53;5041709;28;20508;-72
2023/10/15 08:22:14;;;;;;;15.48;7.13;;;;;;;31.44;38.10;96808.03;5047196;28;20036;-73
2023/10/15 08:24:40;;;;;;;22.92;6.07;;;;;;;32.19;37.02;96805.16;5047361;28;20663;-72
2023/10/15 08:27:08;;;;;;;17.20;7.20;;;;;;;32.92;36.25;96796.72;5029190;28;20029;-72
2023/10/15 08:29:34;;;;;;;13.68;5.65;;;;;;;32.90;35.25;96792.53;5046987;28;20040;-72
2023/10/15 08:31:59;;;;;;;12.55;6.75;;;;;;;33.25;35.21;96793.88;5028900;28;20033;-72
2023/10/15 08:34:25;;;;;;;14.23;6.32;;;;;;;33.02;35.35;96793.25;5028998;28;20032;-72
2023/10/15 08:36:51;;;;;;;24.20;6.70;;;;;;;33.00;35.91;96781.59;5045727;28;20029;-72
2023/10/15 08:39:16;;;;;;;17.67;5.80;;;;;;;33.66;34.39;96775.03;5032626;28;20399;-72
2023/10/15 08:41:44;;;;;;;21.60;6.15;;;;;;;33.72;34.30;96774.81;5063411;28;20040;-73
2023/10/15 08:44:10;;;;;;;19.52;7.15;;;;;;;34.48;33.35;96778.41;5069529;28;20021;-72
2023/10/15 08:46:39;;;;;;;22.58;6.82;;;;;;;34.84;33.09;96783.16;5069840;28;20044;-73
2023/10/15 08:49:07;;;;;;;14.32;5.93;;;;;;;34.64;32.40;96774.66;5060899;28;20021;-72
2023/10/15 08:51:34;;;;;;;17.52;6.15;;;;;;;34.77;32.63;96779.78;5066097;28;20029;-72
2023/10/15 08:54:02;;;;;;;18.60;6.65;;;;;;;34.03;33.56;96776.00;5050510;28;20103;-72
2023/10/15 08:56:30;;;;;;;18.75;6.10;;;;;;;34.15;33.47;96775.84;5049102;28;20086;-73
2023/10/15 08:58:57;;;;;;;10.70;5.32;;;;;;;34.68;32.13;96767.47;5049342;28;20051;-74
2023/10/15 09:01:23;;;;;;;12.68;5.43;;;;;;;34.46;32.22;96765.88;5050577;28;20040;-72
2023/10/15 09:03:52;;;;;;;11.15;5.38;;;;;;;34.10;32.35;96762.78;5049477;28;20083;-73
2023/10/15 09:06:19;;;;;;;9.82;5.13;;;;;;;34.09;32.23;96765.78;5070324;28;20034;-72
2023/10/15 09:08:45;;;;;;;10.50;4.53;;;;;;;35.63;30.18;96743.28;5085808;28;20047;-73
2023/10/15 09:11:11;;;;;;;11.70;5.07;;;;;;;36.40;29.55;96746.81;5069067;28;20107;-72
2023/10/15 09:13:37;;;;;;;9.27;4.55;;;;;;;36.00;29.00;96743.09;5070427;28;20112;-72
2023/10/15 09:16:08;;;;;;;31.55;22.35;;;;;;;35.57;29.50;96734.09;5068778;28;20578;-72
2023/10/15 09:18:37;;;;;;;11.57;5.38;;;;;;;34.25;30.75;96743.47;5068874;28;20049;-72
2023/10/15 09:21:03;;;;;;;17.58;10.90;;;;;;;33.02;32.23;96748.91;5070012;28;20032;-72
2023/10/15 09:23:36;;;;;;;13.30;5.20;;;;;;;32.29;33.11;96747.22;5052212;28;20107;-72
2023/10/15 09:26:04;;;;;;;15.85;5.20;;;;;;;32.25;33.52;96743.25;5102482;28;20105;-72
2023/10/15 09:28:30;;;;;;;13.38;4.60;;;;;;;32.90;32.37;96746.25;5067802;28;20077;-72
2023/10/15 09:31:06;;;;;;;9.00;4.47;;;;;;;34.32;31.17;96737.72;5048739;28;20039;-72
2023/10/15 09:33:33;;;;;;;9.88;4.38;;;;;;;33.44;31.66;96733.38;5059309;28;20483;-72
2023/10/15 09:36:02;;;;;;;16.50;6.30;;;;;;;34.73;30.93;96742.50;5102539;28;20086;-72
2023/10/15 09:38:31;;;;;;;9.77;5.00;;;;;;;32.42;32.70;96737.72;5069954;28;20028;-72
2023/10/15 09:40:58;;;;;;;9.88;5.15;;;;;;;31.55;34.00;96738.09;5052161;28;20132;-71
2023/10/15 09:43:24;;;;;;;11.85;4.57;;;;;;;32.05;34.09;96731.84;5051849;28;20035;-71
2023/10/15 09:45:54;;;;;;;15.43;5.72;;;;;;;32.09;33.93;96733.84;5068644;28;20025;-72
2023/10/15 09:48:23;;;;;;;14.02;4.72;;;;;;;32.67;33.52;96730.66;5051857;28;20122;-72
2023/10/15 09:50:51;;;;;;;9.45;4.53;;;;;;;33.35;32.20;96715.53;5068706;28;20048;-73
2023/10/15 09:53:17;;;;;;;10.90;4.53;;;;;;;32.80;32.58;96714.75;5051850;28;20384;-73
2023/10/15 09:55:45;;;;;;;21.73;10.27;;;;;;;32.95;32.68;96715.81;5068350;28;20041;-72
2023/10/15 09:58:12;;;;;;;16.13;4.82;;;;;;;34.63;30.56;96702.69;5051897;28;20035;-73
2023/10/15 10:01:08;;;;;;;15.48;5.38;;;;;;;35.36;30.38;96698.91;5064808;28;20033;-72
2023/10/15 10:03:47;;;;;;;12.93;4.72;;;;;;;37.86;27.60;96702.94;5066254;28;20090;-73
2023/10/15 10:06:31;;;;;;;12.95;4.30;;;;;;;37.54;27.64;96697.81;5068215;28;20451;-72
2023/10/15 10:09:24;;;;;;;8.32;4.13;;;;;;;38.96;26.00;96687.25;5069279;28;20043;-73
2023/10/15 10:12:07;;;;;;;11.10;4.30;;;;;;;37.72;27.20;96683.19;5069220;28;20113;-72
2023/10/15 10:14:54;;;;;;;10.88;4.50;;;;;;;39.41;25.67;96685.88;5065217;28;20076;-72
2023/10/15 10:17:20;;;;;;;12.73;4.43;;;;;;;38.26;26.21;96679.47;5069225;28;20421;-72
2023/10/15 10:19:53;;;;;;;13.10;4.93;;;;;;;37.95;26.87;96676.94;5067990;28;20465;-72
2023/10/15 10:22:29;;;;;;;11.45;4.57;;;;;;;37.69;27.04;96668.94;5067855;28;20032;-73
2023/10/15 10:24:58;;;;;;;10.70;4.90;;;;;;;37.35;27.46;96669.66;5067674;28;20483;-73
2023/10/15 10:27:24;;;;;;;10.20;4.05;;;;;;;37.80;27.05;96663.03;5067779;28;20035;-73
2023/10/15 10:29:51;;;;;;;9.13;4.47;;;;;;;38.77;26.20;96655.53;5067737;28;20032;-73
2023/10/15 10:32:19;;;;;;;8.18;4.43;;;;;;;39.49;25.25;96656.41;5067481;28;20025;-74
2023/10/15 10:34:45;;;;;;;16.88;5.50;;;;;;;39.04;25.57;96654.97;5070463;28;20109;-74
2023/10/15 10:37:22;;;;;;;14.60;4.85;;;;;;;38.72;25.45;96647.19;5069417;28;20043;-75
2023/10/15 10:39:48;;;;;;;9.77;4.43;;;;;;;38.35;25.81;96644.22;5070498;28;20028;-76
2023/10/15 10:42:26;;;;;;;11.13;4.60;;;;;;;37.28;26.81;96638.47;5070221;28;20025;-75
2023/10/15 10:44:58;;;;;;;16.73;4.88;;;;;;;34.27;29.74;96640.47;5069077;28;20099;-74
2023/10/15 10:47:29;;;;;;;14.63;9.98;;;;;;;32.69;31.34;96645.38;5070511;28;20027;-72
2023/10/15 10:49:58;;;;;;;8.43;5.00;;;;;;;31.66;32.93;96643.13;5071253;28;20020;-73
2023/10/15 10:52:36;;;;;;;14.93;8.75;;;;;;;30.97;33.79;96646.19;5070176;28;20690;-73
2023/10/15 10:55:33;;;;;;;11.80;6.97;;;;;;;30.64;35.23;96647.69;5071183;28;20086;-72
2023/10/15 10:58:23;;;;;;;11.32;4.63;;;;;;;30.82;34.10;96638.41;5069800;28;20036;-72
2023/10/15 11:00:48;;;;;;;10.27;4.63;;;;;;;30.99;34.32;96630.22;5069543;28;20066;-72
2023/10/15 11:03:14;;;;;;;9.52;4.53;;;;;;;31.16;34.47;96629.16;5069903;28;20024;-74
2023/10/15 11:05:40;;;;;;;9.90;4.43;;;;;;;31.70;33.28;96618.59;5069622;28;20031;-72
2023/10/15 11:08:17;;;;;;;13.52;5.43;;;;;;;32.73;32.19;96613.28;5069656;28;20119;-72
2023/10/15 11:10:45;;;;;;;9.35;4.47;;;;;;;33.75;30.90;96612.50;5069332;28;20029;-72
2023/10/15 11:13:12;;;;;;;12.65;4.80;;;;;;;36.01;29.26;96606.38;5086583;28;20366;-73
2023/10/15 11:15:38;;;;;;;7.55;4.43;;;;;;;35.43;28.83;96610.47;5069832;28;20032;-73
2023/10/15 11:18:07;;;;;;;15.35;5.60;;;;;;;33.25;31.37;96607.28;5069299;28;20121;-72
2023/10/15 11:20:35;;;;;;;8.07;4.50;;;;;;;33.46;30.95;96598.06;5070004;28;20035;-72
2023/10/15 11:23:06;;;;;;;14.38;4.28;;;;;;;33.87;30.38;96609.56;5069234;28;20074;-73
2023/10/15 11:25:35;;;;;;;18.80;4.50;;;;;;;35.24;29.42;96603.75;5069650;28;20032;-72
2023/10/15 11:28:04;;;;;;;9.50;3.80;;;;;;;35.61;28.60;96604.41;5069494;28;20029;-72
2023/10/15 11:30:29;;;;;;;11.52;4.25;;;;;;;35.11;28.22;96591.19;5070717;28;20407;-72
2023/10/15 11:32:55;;;;;;;10.18;3.47;;;;;;;36.70;26.96;96589.84;5086007;28;20029;-73
2023/10/15 11:35:21;;;;;;;9.10;4.45;;;;;;;37.31;26.46;96584.03;5070853;28;20020;-73
2023/10/15 11:37:52;;;;;;;8.32;4.10;;;;;;;38.96;25.38;96578.13;5070243;28;20028;-73
2023/10/15 11:40:21;;;;;;;9.75;3.60;;;;;;;38.54;25.14;96585.59;5070733;28;20032;-73
2023/10/15 11:42:54;;;;;;;10.52;3.95;;;;;;;39.94;23.88;96574.47;5069077;28;20020;-74
2023/10/15 11:45:30;;;;;;;10.55;4.18;;;;;;;39.51;23.86;96572.91;5070576;28;20031;-73
2023/10/15 11:47:56;;;;;;;13.85;4.72;;;;;;;34.85;28.03;96569.94;5086309;28;20031;-73